This is the latest recevied weather packets stored in our database for station/object VK3AFQ-13. If no packets are shown the sender has not sent any weather packets the latest 10 day(s).
| Time | Temp. | Humidity | Pressure | Rain* | Wind** | Luminosity | Snow |
|---|---|---|---|---|---|---|---|
| 1788157863 | 68° F | 60% | 770.7 mmHg | - | - | - | - |
| 1788156963 | 68° F | 60% | 770.8 mmHg | - | - | - | - |
| 1788156061 | 68° F | 59% | 771 mmHg | - | - | - | - |
| 1788155162 | 68° F | 61% | 771.1 mmHg | - | - | - | - |
| 1788154262 | 68° F | 62% | 771.2 mmHg | - | - | - | - |
| 1788153363 | 68° F | 59% | 771.3 mmHg | - | - | - | - |
| 1788152462 | 68° F | 62% | 771.4 mmHg | - | - | - | - |
| 1788136263 | 56° F | 82% | 773.9 mmHg | - | - | - | - |
| 1788110163 | 49° F | 93% | 773.2 mmHg | - | - | - | - |
| 1788109261 | 49° F | 93% | 773.2 mmHg | - | - | - | - |
| 1788108363 | 50° F | 93% | 773.3 mmHg | - | - | - | - |
| 1788107463 | 50° F | 92% | 773.2 mmHg | - | - | - | - |
| 1788106563 | 50° F | 93% | 773.4 mmHg | - | - | - | - |
| 1788105662 | 50° F | 93% | 773.5 mmHg | - | - | - | - |
| 1788104762 | 50° F | 92% | 773.6 mmHg | - | - | - | - |
| 1788103863 | 50° F | 91% | 773.8 mmHg | - | - | - | - |
| 1788102962 | 51° F | 91% | 773.7 mmHg | - | - | - | - |
| 1788102062 | 51° F | 90% | 773.6 mmHg | - | - | - | - |
| 1788101164 | 52° F | 90% | 773.5 mmHg | - | - | - | - |
| 1788098461 | 52° F | 90% | 773.6 mmHg | - | - | - | - |
| 1788076862 | 62° F | 77% | 773.5 mmHg | - | - | - | - |
| 1788075962 | 63° F | 76% | 773.3 mmHg | - | - | - | - |
| 1788075063 | 65° F | 74% | 773.4 mmHg | - | - | - | - |
| 1788074162 | 66° F | 72% | 773.4 mmHg | - | - | - | - |
| 1788073262 | 66° F | 70% | 773.4 mmHg | - | - | - | - |
* Rain since midnight (hover to see other rain measurements)
** Current wind speed in m/s (hover to see current wind gust speed)